sensor_id;sensor_type;location;lat;lon;timestamp;pressure;altitude;pressure_sealevel;temperature;humidity
36092;BME280;22147;52.388;13.390;2023-12-07T00:02:10;100920.94;;;-2.37;100.00
36092;BME280;22147;52.388;13.390;2023-12-07T00:04:42;100920.69;;;-2.35;100.00
36092;BME280;22147;52.388;13.390;2023-12-07T00:07:12;100925.28;;;-2.36;100.00
36092;BME280;22147;52.388;13.390;2023-12-07T00:09:42;100927.19;;;-2.36;100.00
36092;BME280;22147;52.388;13.390;2023-12-07T00:12:12;100925.53;;;-2.37;100.00
36092;BME280;22147;52.388;13.390;2023-12-07T00:14:41;100928.03;;;-2.36;100.00
36092;BME280;22147;52.388;13.390;2023-12-07T00:17:11;100918.53;;;-2.33;100.00
36092;BME280;22147;52.388;13.390;2023-12-07T00:19:40;100914.19;;;-2.34;100.00
36092;BME280;22147;52.388;13.390;2023-12-07T00:22:08;100918.81;;;-2.35;100.00
36092;BME280;22147;52.388;13.390;2023-12-07T00:24:37;100925.88;;;-2.34;100.00
36092;BME280;22147;52.388;13.390;2023-12-07T00:27:05;100925.06;;;-2.34;100.00
36092;BME280;22147;52.388;13.390;2023-12-07T00:29:36;100930.28;;;-2.33;100.00
36092;BME280;22147;52.388;13.390;2023-12-07T00:32:05;100927.78;;;-2.34;100.00
36092;BME280;22147;52.388;13.390;2023-12-07T00:34:36;100922.13;;;-2.33;100.00
36092;BME280;22147;52.388;13.390;2023-12-07T00:37:08;100931.09;;;-2.32;100.00
36092;BME280;22147;52.388;13.390;2023-12-07T00:39:41;100933.81;;;-2.32;100.00
36092;BME280;22147;52.388;13.390;2023-12-07T00:42:12;100935.22;;;-2.30;100.00
36092;BME280;22147;52.388;13.390;2023-12-07T00:44:43;100937.94;;;-2.30;100.00
36092;BME280;22147;52.388;13.390;2023-12-07T00:47:14;100936.88;;;-2.29;100.00
36092;BME280;22147;52.388;13.390;2023-12-07T00:49:45;100938.78;;;-2.29;100.00
36092;BME280;22147;52.388;13.390;2023-12-07T00:52:14;100940.44;;;-2.28;100.00
36092;BME280;22147;52.388;13.390;2023-12-07T00:54:42;100937.38;;;-2.32;100.00
36092;BME280;22147;52.388;13.390;2023-12-07T00:57:11;100936.88;;;-2.29;100.00
36092;BME280;22147;52.388;13.390;2023-12-07T00:59:39;100942.31;;;-2.29;100.00
36092;BME280;22147;52.388;13.390;2023-12-07T01:02:10;100935.00;;;-2.28;100.00
36092;BME280;22147;52.388;13.390;2023-12-07T01:04:39;100944.00;;;-2.28;100.00
36092;BME280;22147;52.388;13.390;2023-12-07T01:07:07;100942.91;;;-2.27;100.00
36092;BME280;22147;52.388;13.390;2023-12-07T01:09:36;100952.97;;;-2.27;100.00
36092;BME280;22147;52.388;13.390;2023-12-07T01:12:04;100965.25;;;-2.25;100.00
36092;BME280;22147;52.388;13.390;2023-12-07T01:14:33;100968.00;;;-2.25;100.00
36092;BME280;22147;52.388;13.390;2023-12-07T01:17:01;100968.00;;;-2.25;100.00
36092;BME280;22147;52.388;13.390;2023-12-07T01:19:32;100978.06;;;-2.25;100.00
36092;BME280;22147;52.388;13.390;2023-12-07T01:22:05;100973.69;;;-2.26;100.00
36092;BME280;22147;52.388;13.390;2023-12-07T01:24:36;100976.88;;;-2.29;100.00
36092;BME280;22147;52.388;13.390;2023-12-07T01:27:07;100983.63;;;-2.32;100.00
36092;BME280;22147;52.388;13.390;2023-12-07T01:29:38;100971.91;;;-2.32;100.00
36092;BME280;22147;52.388;13.390;2023-12-07T01:32:09;100976.53;;;-2.33;100.00
36092;BME280;22147;52.388;13.390;2023-12-07T01:34:40;100984.69;;;-2.33;100.00
36092;BME280;22147;52.388;13.390;2023-12-07T01:37:11;100986.56;;;-2.33;100.00
36092;BME280;22147;52.388;13.390;2023-12-07T01:39:43;100992.59;;;-2.31;100.00
36092;BME280;22147;52.388;13.390;2023-12-07T01:42:15;100995.69;;;-2.28;100.00
36092;BME280;22147;52.388;13.390;2023-12-07T01:44:46;100991.06;;;-2.27;100.00
36092;BME280;22147;52.388;13.390;2023-12-07T01:47:18;100999.22;;;-2.27;100.00
36092;BME280;22147;52.388;13.390;2023-12-07T01:49:49;101007.16;;;-2.26;100.00
36092;BME280;22147;52.388;13.390;2023-12-07T01:52:26;101004.44;;;-2.26;100.00
36092;BME280;22147;52.388;13.390;2023-12-07T01:54:58;101002.53;;;-2.25;100.00
36092;BME280;22147;52.388;13.390;2023-12-07T01:57:30;101002.53;;;-2.25;100.00
36092;BME280;22147;52.388;13.390;2023-12-07T02:00:02;101002.53;;;-2.25;100.00
36092;BME280;22147;52.388;13.390;2023-12-07T02:02:37;101004.22;;;-2.24;100.00
36092;BME280;22147;52.388;13.390;2023-12-07T02:05:08;101001.50;;;-2.24;100.00
36092;BME280;22147;52.388;13.390;2023-12-07T02:07:42;101010.72;;;-2.25;100.00
36092;BME280;22147;52.388;13.390;2023-12-07T02:10:14;101004.22;;;-2.24;100.00
36092;BME280;22147;52.388;13.390;2023-12-07T02:12:46;101001.22;;;-2.22;100.00
36092;BME280;22147;52.388;13.390;2023-12-07T02:15:19;101002.09;;;-2.22;100.00
36092;BME280;22147;52.388;13.390;2023-12-07T02:18:14;101003.72;;;-2.21;100.00
36092;BME280;22147;52.388;13.390;2023-12-07T02:24:06;101004.56;;;-2.20;100.00
36092;BME280;22147;52.388;13.390;2023-12-07T02:26:38;101010.00;;;-2.20;100.00
36092;BME280;22147;52.388;13.390;2023-12-07T02:29:09;101002.69;;;-2.20;100.00
36092;BME280;22147;52.388;13.390;2023-12-07T02:31:40;101008.13;;;-2.20;100.00
36092;BME280;22147;52.388;13.390;2023-12-07T02:34:12;101012.50;;;-2.19;100.00
36092;BME280;22147;52.388;13.390;2023-12-07T02:36:46;101019.00;;;-2.20;100.00
36092;BME280;22147;52.388;13.390;2023-12-07T02:39:20;101019.00;;;-2.20;100.00
36092;BME280;22147;52.388;13.390;2023-12-07T02:41:54;101018.16;;;-2.20;100.00
36092;BME280;22147;52.388;13.390;2023-12-07T02:44:26;101018.75;;;-2.18;100.00
36092;BME280;22147;52.388;13.390;2023-12-07T02:46:59;101016.63;;;-2.16;100.00
36092;BME280;22147;52.388;13.390;2023-12-07T02:49:30;101010.94;;;-2.15;100.00
36092;BME280;22147;52.388;13.390;2023-12-07T02:52:01;101017.94;;;-2.19;100.00
36092;BME280;22147;52.388;13.390;2023-12-07T02:54:32;101024.69;;;-2.21;100.00
36092;BME280;22147;52.388;13.390;2023-12-07T02:57:04;101030.13;;;-2.21;100.00
36092;BME280;22147;52.388;13.390;2023-12-07T02:59:35;101032.63;;;-2.20;100.00
36092;BME280;22147;52.388;13.390;2023-12-07T03:02:06;101035.94;;;-2.18;100.00
36092;BME280;22147;52.388;13.390;2023-12-07T03:04:37;101035.94;;;-2.18;100.00
36092;BME280;22147;52.388;13.390;2023-12-07T03:07:08;101038.88;;;-2.19;100.00
36092;BME280;22147;52.388;13.390;2023-12-07T03:09:40;101040.53;;;-2.18;100.00
36092;BME280;22147;52.388;13.390;2023-12-07T03:12:11;101034.03;;;-2.17;100.00
36092;BME280;22147;52.388;13.390;2023-12-07T03:14:42;101035.66;;;-2.16;100.00
36092;BME280;22147;52.388;13.390;2023-12-07T03:17:13;101041.13;;;-2.16;100.00
36092;BME280;22147;52.388;13.390;2023-12-07T03:19:44;101034.84;;;-2.17;100.00
36092;BME280;22147;52.388;13.390;2023-12-07T03:22:16;101042.19;;;-2.17;100.00
36092;BME280;22147;52.388;13.390;2023-12-07T03:24:52;101039.25;;;-2.16;100.00
36092;BME280;22147;52.388;13.390;2023-12-07T03:27:23;101036.25;;;-2.14;100.00
36092;BME280;22147;52.388;13.390;2023-12-07T03:29:54;101047.41;;;-2.16;100.00
36092;BME280;22147;52.388;13.390;2023-12-07T03:32:25;101045.75;;;-2.17;100.00
36092;BME280;22147;52.388;13.390;2023-12-07T03:34:57;101045.75;;;-2.17;100.00
36092;BME280;22147;52.388;13.390;2023-12-07T03:37:25;101049.28;;;-2.16;100.00
36092;BME280;22147;52.388;13.390;2023-12-07T03:39:54;101061.84;;;-2.15;100.00
36092;BME280;22147;52.388;13.390;2023-12-07T03:42:22;101062.66;;;-2.15;100.00
36092;BME280;22147;52.388;13.390;2023-12-07T03:45:11;101051.56;;;-2.13;100.00
36092;BME280;22147;52.388;13.390;2023-12-07T03:47:41;101059.72;;;-2.13;100.00
36092;BME280;22147;52.388;13.390;2023-12-07T03:50:12;101074.13;;;-2.13;100.00
36092;BME280;22147;52.388;13.390;2023-12-07T03:52:41;101068.69;;;-2.13;100.00
36092;BME280;22147;52.388;13.390;2023-12-07T03:55:11;101068.69;;;-2.13;100.00
36092;BME280;22147;52.388;13.390;2023-12-07T03:57:40;101068.69;;;-2.13;100.00
36092;BME280;22147;52.388;13.390;2023-12-07T04:00:12;101073.91;;;-2.11;100.00
36092;BME280;22147;52.388;13.390;2023-12-07T04:02:44;101071.19;;;-2.11;100.00
36092;BME280;22147;52.388;13.390;2023-12-07T04:05:15;101071.19;;;-2.11;100.00
36092;BME280;22147;52.388;13.390;2023-12-07T04:07:46;101067.41;;;-2.10;100.00
36092;BME280;22147;52.388;13.390;2023-12-07T04:10:16;101068.22;;;-2.10;100.00
36092;BME280;22147;52.388;13.390;2023-12-07T04:12:46;101060.91;;;-2.09;100.00
36092;BME280;22147;52.388;13.390;2023-12-07T04:15:16;101072.84;;;-2.10;100.00
36092;BME280;22147;52.388;13.390;2023-12-07T04:17:49;101063.63;;;-2.09;100.00
36092;BME280;22147;52.388;13.390;2023-12-07T04:20:19;101063.63;;;-2.09;100.00
36092;BME280;22147;52.388;13.390;2023-12-07T04:22:49;101078.06;;;-2.09;100.00
36092;BME280;22147;52.388;13.390;2023-12-07T04:25:19;101076.16;;;-2.08;100.00
36092;BME280;22147;52.388;13.390;2023-12-07T04:27:49;101079.97;;;-2.09;100.00
36092;BME280;22147;52.388;13.390;2023-12-07T04:30:19;101079.59;;;-2.13;100.00
36092;BME280;22147;52.388;13.390;2023-12-07T04:32:49;101080.19;;;-2.11;100.00
36092;BME280;22147;52.388;13.390;2023-12-07T04:35:19;101090.47;;;-2.13;100.00
36092;BME280;22147;52.388;13.390;2023-12-07T04:37:48;101094.00;;;-2.12;100.00
36092;BME280;22147;52.388;13.390;2023-12-07T04:40:19;101088.34;;;-2.11;100.00
36092;BME280;22147;52.388;13.390;2023-12-07T04:42:48;101099.22;;;-2.11;100.00
36092;BME280;22147;52.388;13.390;2023-12-07T04:45:19;101098.16;;;-2.10;100.00
36092;BME280;22147;52.388;13.390;2023-12-07T04:47:49;101099.22;;;-2.11;100.00
36092;BME280;22147;52.388;13.390;2023-12-07T04:50:19;101107.41;;;-2.11;100.00
36092;BME280;22147;52.388;13.390;2023-12-07T04:52:49;101110.94;;;-2.10;100.00
36092;BME280;22147;52.388;13.390;2023-12-07T04:55:19;101119.94;;;-2.10;100.00
36092;BME280;22147;52.388;13.390;2023-12-07T04:57:49;101114.25;;;-2.08;100.00
36092;BME280;22147;52.388;13.390;2023-12-07T05:00:19;101110.94;;;-2.10;100.00
36092;BME280;22147;52.388;13.390;2023-12-07T05:02:51;101112.63;;;-2.09;100.00
36092;BME280;22147;52.388;13.390;2023-12-07T05:05:21;101113.66;;;-2.10;100.00
36092;BME280;22147;52.388;13.390;2023-12-07T05:07:50;101108.22;;;-2.10;100.00
36092;BME280;22147;52.388;13.390;2023-12-07T05:10:21;101118.28;;;-2.11;100.00
36092;BME280;22147;52.388;13.390;2023-12-07T05:12:51;101110.94;;;-2.10;100.00
36092;BME280;22147;52.388;13.390;2023-12-07T05:15:20;101113.66;;;-2.10;100.00
36092;BME280;22147;52.388;13.390;2023-12-07T05:17:50;101103.00;;;-2.12;100.00
36092;BME280;22147;52.388;13.390;2023-12-07T05:20:22;101107.63;;;-2.12;100.00
36092;BME280;22147;52.388;13.390;2023-12-07T05:22:55;101108.69;;;-2.13;100.00
36092;BME280;22147;52.388;13.390;2023-12-07T05:25:26;101106.81;;;-2.13;100.00
36092;BME280;22147;52.388;13.390;2023-12-07T05:27:57;101112.03;;;-2.11;100.00
36092;BME280;22147;52.388;13.390;2023-12-07T05:30:28;101118.28;;;-2.11;100.00
36092;BME280;22147;52.388;13.390;2023-12-07T05:32:59;101118.28;;;-2.11;100.00
36092;BME280;22147;52.388;13.390;2023-12-07T05:35:31;101123.72;;;-2.11;100.00
36092;BME280;22147;52.388;13.390;2023-12-07T05:38:02;101122.66;;;-2.10;100.00
36092;BME280;22147;52.388;13.390;2023-12-07T05:40:33;101123.50;;;-2.09;100.00
36092;BME280;22147;52.388;13.390;2023-12-07T05:43:04;101127.66;;;-2.07;100.00
36092;BME280;22147;52.388;13.390;2023-12-07T05:45:36;101115.09;;;-2.08;100.00
36092;BME280;22147;52.388;13.390;2023-12-07T05:48:07;101122.44;;;-2.08;100.00
36092;BME280;22147;52.388;13.390;2023-12-07T05:50:38;101126.22;;;-2.09;100.00
36092;BME280;22147;52.388;13.390;2023-12-07T05:53:10;101118.06;;;-2.09;100.00
36092;BME280;22147;52.388;13.390;2023-12-07T05:55:41;101119.59;;;-2.13;100.00
36092;BME280;22147;52.388;13.390;2023-12-07T05:58:13;101125.25;;;-2.15;100.00
36092;BME280;22147;52.388;13.390;2023-12-07T06:00:44;101123.97;;;-2.12;100.00
36092;BME280;22147;52.388;13.390;2023-12-07T06:03:18;101132.94;;;-2.12;100.00
36092;BME280;22147;52.388;13.390;2023-12-07T06:05:49;101123.97;;;-2.12;100.00
36092;BME280;22147;52.388;13.390;2023-12-07T06:08:17;101137.81;;;-2.14;100.00
36092;BME280;22147;52.388;13.390;2023-12-07T06:10:46;101138.03;;;-2.15;100.00
36092;BME280;22147;52.388;13.390;2023-12-07T06:13:14;101142.66;;;-2.16;100.00
36092;BME280;22147;52.388;13.390;2023-12-07T06:15:42;101147.50;;;-2.18;100.00
36092;BME280;22147;52.388;13.390;2023-12-07T06:18:11;101142.66;;;-2.16;100.00
36092;BME280;22147;52.388;13.390;2023-12-07T06:20:39;101139.69;;;-2.14;100.00
36092;BME280;22147;52.388;13.390;2023-12-07T06:23:11;101145.72;;;-2.12;100.00
36092;BME280;22147;52.388;13.390;2023-12-07T06:25:43;101139.25;;;-2.11;100.00
36092;BME280;22147;52.388;13.390;2023-12-07T06:28:14;101151.78;;;-2.10;100.00
36092;BME280;22147;52.388;13.390;2023-12-07T06:30:45;101154.16;;;-2.14;100.00
36092;BME280;22147;52.388;13.390;2023-12-07T06:33:17;101155.69;;;-2.18;100.00
36092;BME280;22147;52.388;13.390;2023-12-07T06:35:48;101169.28;;;-2.18;100.00
36092;BME280;22147;52.388;13.390;2023-12-07T06:38:19;101159.22;;;-2.17;100.00
36092;BME280;22147;52.388;13.390;2023-12-07T06:40:50;101171.75;;;-2.16;100.00
36092;BME280;22147;52.388;13.390;2023-12-07T06:43:19;101169.28;;;-2.18;100.00
36092;BME280;22147;52.388;13.390;2023-12-07T06:45:47;101178.28;;;-2.17;100.00
36092;BME280;22147;52.388;13.390;2023-12-07T06:48:15;101180.50;;;-2.14;100.00
36092;BME280;22147;52.388;13.390;2023-12-07T06:50:44;101187.03;;;-2.15;100.00
36092;BME280;22147;52.388;13.390;2023-12-07T06:53:14;101193.31;;;-2.15;100.00
36092;BME280;22147;52.388;13.390;2023-12-07T06:55:44;101190.34;;;-2.13;100.00
36092;BME280;22147;52.388;13.390;2023-12-07T06:58:15;101186.81;;;-2.14;100.00
36092;BME280;22147;52.388;13.390;2023-12-07T07:00:46;101196.63;;;-2.13;100.00
36092;BME280;22147;52.388;13.390;2023-12-07T07:03:18;101189.28;;;-2.12;100.00
36092;BME280;22147;52.388;13.390;2023-12-07T07:05:49;101186.56;;;-2.12;100.00
36092;BME280;22147;52.388;13.390;2023-12-07T07:08:20;101185.25;;;-2.10;100.00
36092;BME280;22147;52.388;13.390;2023-12-07T07:10:51;101186.34;;;-2.11;100.00
36092;BME280;22147;52.388;13.390;2023-12-07T07:13:22;101192.38;;;-2.09;100.00
36092;BME280;22147;52.388;13.390;2023-12-07T07:15:54;101193.31;;;-2.15;100.00
36092;BME280;22147;52.388;13.390;2023-12-07T07:18:25;101191.66;;;-2.16;100.00
36092;BME280;22147;52.388;13.390;2023-12-07T07:20:58;101196.72;;;-2.19;100.00
36092;BME280;22147;52.388;13.390;2023-12-07T07:23:30;101198.38;;;-2.18;100.00
36092;BME280;22147;52.388;13.390;2023-12-07T07:26:01;101196.03;;;-2.15;100.00
36092;BME280;22147;52.388;13.390;2023-12-07T07:28:32;101193.06;;;-2.13;100.00
36092;BME280;22147;52.388;13.390;2023-12-07T07:31:03;101211.88;;;-2.12;100.00
36092;BME280;22147;52.388;13.390;2023-12-07T07:33:35;101203.72;;;-2.12;100.00
36092;BME280;22147;52.388;13.390;2023-12-07T07:36:06;101201.25;;;-2.13;100.00
36092;BME280;22147;52.388;13.390;2023-12-07T07:38:38;101206.69;;;-2.13;100.00
36092;BME280;22147;52.388;13.390;2023-12-07T07:41:10;101203.50;;;-2.10;100.00
36092;BME280;22147;52.388;13.390;2023-12-07T07:43:41;101197.22;;;-2.11;100.00
36092;BME280;22147;52.388;13.390;2023-12-07T07:46:14;101198.66;;;-2.08;100.00
36092;BME280;22147;52.388;13.390;2023-12-07T07:48:46;101197.00;;;-2.09;100.00
36092;BME280;22147;52.388;13.390;2023-12-07T07:51:17;101211.22;;;-2.07;100.00
36092;BME280;22147;52.388;13.390;2023-12-07T07:53:48;101205.06;;;-2.02;100.00
36092;BME280;22147;52.388;13.390;2023-12-07T07:56:19;101204.56;;;-1.99;100.00
36092;BME280;22147;52.388;13.390;2023-12-07T07:58:50;101200.00;;;-1.99;100.00
36092;BME280;22147;52.388;13.390;2023-12-07T08:01:21;101206.59;;;-1.95;100.00
36092;BME280;22147;52.388;13.390;2023-12-07T08:03:53;101207.69;;;-1.96;100.00
36092;BME280;22147;52.388;13.390;2023-12-07T08:06:24;101201.84;;;-1.99;100.00
36092;BME280;22147;52.388;13.390;2023-12-07T08:08:55;101201.63;;;-1.98;100.00
36092;BME280;22147;52.388;13.390;2023-12-07T08:11:26;101201.75;;;-1.93;100.00
36092;BME280;22147;52.388;13.390;2023-12-07T08:13:58;101201.06;;;-1.88;100.00
36092;BME280;22147;52.388;13.390;2023-12-07T08:16:29;101202.88;;;-1.82;100.00
36092;BME280;22147;52.388;13.390;2023-12-07T08:19:00;101205.81;;;-1.83;100.00
36092;BME280;22147;52.388;13.390;2023-12-07T08:21:31;101216.00;;;-1.79;100.00
36092;BME280;22147;52.388;13.390;2023-12-07T08:24:02;101217.66;;;-1.78;100.00
36092;BME280;22147;52.388;13.390;2023-12-07T08:26:34;101216.38;;;-1.75;100.00
36092;BME280;22147;52.388;13.390;2023-12-07T08:29:05;101216.50;;;-1.70;100.00
36092;BME280;22147;52.388;13.390;2023-12-07T08:31:43;101225.84;;;-1.66;100.00
36092;BME280;22147;52.388;13.390;2023-12-07T08:34:11;101229.41;;;-1.66;100.00
36092;BME280;22147;52.388;13.390;2023-12-07T08:36:39;101223.50;;;-1.62;100.00
36092;BME280;22147;52.388;13.390;2023-12-07T08:39:11;101228.22;;;-1.58;100.00
36092;BME280;22147;52.388;13.390;2023-12-07T08:41:39;101231.56;;;-1.56;100.00
36092;BME280;22147;52.388;13.390;2023-12-07T08:44:08;101227.88;;;-1.50;100.00
36092;BME280;22147;52.388;13.390;2023-12-07T08:46:36;101238.19;;;-1.52;100.00
36092;BME280;22147;52.388;13.390;2023-12-07T08:49:05;101237.38;;;-1.52;100.00
36092;BME280;22147;52.388;13.390;2023-12-07T08:51:37;101243.88;;;-1.53;100.00
36092;BME280;22147;52.388;13.390;2023-12-07T08:54:09;101239.38;;;-1.48;100.00
36092;BME280;22147;52.388;13.390;2023-12-07T08:56:46;101243.75;;;-1.47;100.00
36092;BME280;22147;52.388;13.390;2023-12-07T08:59:17;101241.50;;;-1.50;100.00
36092;BME280;22147;52.388;13.390;2023-12-07T09:01:46;101241.63;;;-1.45;100.00
36092;BME280;22147;52.388;13.390;2023-12-07T09:04:14;101244.34;;;-1.45;100.00
36092;BME280;22147;52.388;13.390;2023-12-07T09:06:42;101241.75;;;-1.39;100.00
36092;BME280;22147;52.388;13.390;2023-12-07T09:09:11;101241.63;;;-1.45;100.00
36092;BME280;22147;52.388;13.390;2023-12-07T09:11:42;101239.38;;;-1.36;100.00
36092;BME280;22147;52.388;13.390;2023-12-07T09:14:14;101237.13;;;-1.27;100.00
36092;BME280;22147;52.388;13.390;2023-12-07T09:16:46;101243.53;;;-1.21;100.00
36092;BME280;22147;52.388;13.390;2023-12-07T09:19:17;101245.06;;;-1.26;100.00
36092;BME280;22147;52.388;13.390;2023-12-07T09:21:48;101250.28;;;-1.24;100.00
36092;BME280;22147;52.388;13.390;2023-12-07T09:24:19;101240.44;;;-1.25;100.00
36092;BME280;22147;52.388;13.390;2023-12-07T09:26:50;101249.00;;;-1.21;100.00
36092;BME280;22147;52.388;13.390;2023-12-07T09:29:21;101252.91;;;-1.17;100.00
36092;BME280;22147;52.388;13.390;2023-12-07T09:31:53;101254.09;;;-1.13;100.00
36092;BME280;22147;52.388;13.390;2023-12-07T09:34:24;101247.09;;;-1.09;100.00
36092;BME280;22147;52.388;13.390;2023-12-07T09:37:10;101251.00;;;-1.05;100.00
36092;BME280;22147;52.388;13.390;2023-12-07T09:39:41;101254.44;;;-1.10;100.00
36092;BME280;22147;52.388;13.390;2023-12-07T09:42:12;101258.94;;;-1.15;100.00
36092;BME280;22147;52.388;13.390;2023-12-07T09:44:44;101264.16;;;-1.14;100.00
36092;BME280;22147;52.388;13.390;2023-12-07T09:47:16;101269.38;;;-1.24;100.00
36092;BME280;22147;52.388;13.390;2023-12-07T09:49:58;101263.09;;;-1.25;100.00
36092;BME280;22147;52.388;13.390;2023-12-07T09:52:30;101268.41;;;-1.30;100.00
36092;BME280;22147;52.388;13.390;2023-12-07T09:55:05;101267.38;;;-1.29;100.00
36092;BME280;22147;52.388;13.390;2023-12-07T09:57:40;101276.38;;;-1.28;100.00
36092;BME280;22147;52.388;13.390;2023-12-07T10:00:12;101269.72;;;-1.32;100.00
36092;BME280;22147;52.388;13.390;2023-12-07T10:02:46;101272.22;;;-1.31;100.00
36092;BME280;22147;52.388;13.390;2023-12-07T10:05:17;101272.56;;;-1.27;100.00
36092;BME280;22147;52.388;13.390;2023-12-07T10:07:50;101271.50;;;-1.26;100.00
36092;BME280;22147;52.388;13.390;2023-12-07T10:10:21;101267.97;;;-1.27;100.00
36092;BME280;22147;52.388;13.390;2023-12-07T10:12:59;101267.22;;;-1.34;100.00
36092;BME280;22147;52.388;13.390;2023-12-07T10:15:30;101263.69;;;-1.34;100.00
36092;BME280;22147;52.388;13.390;2023-12-07T10:18:01;101262.38;;;-1.32;100.00
36092;BME280;22147;52.388;13.390;2023-12-07T10:20:30;101254.34;;;-1.27;100.00
36092;BME280;22147;52.388;13.390;2023-12-07T10:23:02;101257.16;;;-1.21;100.00
36092;BME280;22147;52.388;13.390;2023-12-07T10:25:41;101248.53;;;-1.18;100.00
36092;BME280;22147;52.388;13.390;2023-12-07T10:28:13;101249.22;;;-1.11;100.00
36092;BME280;22147;52.388;13.390;2023-12-07T10:30:47;101249.94;;;-1.04;100.00
36092;BME280;22147;52.388;13.390;2023-12-07T10:33:16;101259.28;;;-1.00;100.00
36092;BME280;22147;52.388;13.390;2023-12-07T10:35:44;101256.69;;;-0.95;100.00
36092;BME280;22147;52.388;13.390;2023-12-07T10:38:12;101259.28;;;-0.88;100.00
36092;BME280;22147;52.388;13.390;2023-12-07T10:40:41;101250.75;;;-0.92;100.00
36092;BME280;22147;52.388;13.390;2023-12-07T10:43:09;101251.94;;;-0.88;100.00
36092;BME280;22147;52.388;13.390;2023-12-07T10:45:41;101249.91;;;-0.80;100.00
36092;BME280;22147;52.388;13.390;2023-12-07T10:48:14;101259.03;;;-0.75;100.00
36092;BME280;22147;52.388;13.390;2023-12-07T10:50:51;101254.28;;;-0.68;100.00
36092;BME280;22147;52.388;13.390;2023-12-07T10:53:32;101255.34;;;-0.69;100.00
36092;BME280;22147;52.388;13.390;2023-12-07T10:56:16;101257.03;;;-0.68;100.00
36092;BME280;22147;52.388;13.390;2023-12-07T10:58:52;101258.91;;;-0.68;100.00
36092;BME280;22147;52.388;13.390;2023-12-07T11:01:26;101259.25;;;-0.76;100.00
36092;BME280;22147;52.388;13.390;2023-12-07T11:04:00;101257.03;;;-0.79;100.00
36092;BME280;22147;52.388;13.390;2023-12-07T11:06:33;101256.94;;;-0.85;100.00
36092;BME280;22147;52.388;13.390;2023-12-07T11:09:22;101249.91;;;-0.80;100.00
36092;BME280;22147;52.388;13.390;2023-12-07T11:12:16;101243.75;;;-0.76;100.00
36092;BME280;22147;52.388;13.390;2023-12-07T11:14:48;101248.84;;;-0.68;100.00
36092;BME280;22147;52.388;13.390;2023-12-07T11:17:21;101241.69;;;-0.69;100.00
36092;BME280;22147;52.388;13.390;2023-12-07T11:19:54;101246.69;;;-0.66;100.00
36092;BME280;22147;52.388;13.390;2023-12-07T11:22:25;101236.47;;;-0.70;100.00
36092;BME280;22147;52.388;13.390;2023-12-07T11:24:57;101238.16;;;-0.69;100.00
36092;BME280;22147;52.388;13.390;2023-12-07T11:27:32;101232.09;;;-0.71;100.00
36092;BME280;22147;52.388;13.390;2023-12-07T11:30:04;101236.25;;;-0.69;100.00
36092;BME280;22147;52.388;13.390;2023-12-07T11:32:36;101236.25;;;-0.69;100.00
36092;BME280;22147;52.388;13.390;2023-12-07T11:35:12;101234.84;;;-0.71;100.00
36092;BME280;22147;52.388;13.390;2023-12-07T11:38:06;101229.03;;;-0.75;100.00
36092;BME280;22147;52.388;13.390;2023-12-07T11:40:41;101227.63;;;-0.77;100.00
36092;BME280;22147;52.388;13.390;2023-12-07T11:43:18;101230.34;;;-0.77;100.00
36092;BME280;22147;52.388;13.390;2023-12-07T11:45:49;101216.47;;;-0.76;100.00
36092;BME280;22147;52.388;13.390;2023-12-07T11:48:20;101222.03;;;-0.71;100.00
36092;BME280;22147;52.388;13.390;2023-12-07T11:51:04;101229.84;;;-0.74;100.00
36092;BME280;22147;52.388;13.390;2023-12-07T11:53:36;101233.44;;;-0.74;100.00
36092;BME280;22147;52.388;13.390;2023-12-07T11:56:08;101227.63;;;-0.77;100.00
36092;BME280;22147;52.388;13.390;2023-12-07T11:58:39;101224.66;;;-0.76;100.00
36092;BME280;22147;52.388;13.390;2023-12-07T12:01:10;101228.94;;;-0.92;100.00
36092;BME280;22147;52.388;13.390;2023-12-07T12:03:39;101228.94;;;-0.92;100.00
36092;BME280;22147;52.388;13.390;2023-12-07T12:06:13;101227.38;;;-0.88;100.00
36092;BME280;22147;52.388;13.390;2023-12-07T12:08:42;101224.88;;;-0.89;100.00
36092;BME280;22147;52.388;13.390;2023-12-07T12:11:13;101224.44;;;-0.86;100.00
36092;BME280;22147;52.388;13.390;2023-12-07T12:13:45;101227.75;;;-0.96;100.00
36092;BME280;22147;52.388;13.390;2023-12-07T12:16:16;101224.78;;;-0.94;100.00
36092;BME280;22147;52.388;13.390;2023-12-07T12:18:46;101230.25;;;-0.94;100.00
36092;BME280;22147;52.388;13.390;2023-12-07T12:21:17;101226.69;;;-0.95;100.00
36092;BME280;22147;52.388;13.390;2023-12-07T12:23:50;101225.38;;;-0.92;100.00
36092;BME280;22147;52.388;13.390;2023-12-07T12:26:21;101220.28;;;-0.89;100.00
36092;BME280;22147;52.388;13.390;2023-12-07T12:28:51;101217.19;;;-0.92;100.00
36092;BME280;22147;52.388;13.390;2023-12-07T12:31:21;101222.88;;;-0.94;100.00
36092;BME280;22147;52.388;13.390;2023-12-07T12:33:53;101225.63;;;-0.94;100.00
36092;BME280;22147;52.388;13.390;2023-12-07T12:36:26;101234.03;;;-0.95;100.00
36092;BME280;22147;52.388;13.390;2023-12-07T12:39:00;101232.88;;;-0.99;100.00
36092;BME280;22147;52.388;13.390;2023-12-07T12:41:33;101240.09;;;-1.05;100.00
36092;BME280;22147;52.388;13.390;2023-12-07T12:44:04;101226.47;;;-1.05;100.00
36092;BME280;22147;52.388;13.390;2023-12-07T12:46:35;101225.16;;;-1.03;100.00
36092;BME280;22147;52.388;13.390;2023-12-07T12:49:08;101221.38;;;-1.01;100.00
36092;BME280;22147;52.388;13.390;2023-12-07T12:51:38;101219.69;;;-1.03;100.00
36092;BME280;22147;52.388;13.390;2023-12-07T12:54:08;101217.47;;;-1.06;100.00
36092;BME280;22147;52.388;13.390;2023-12-07T12:56:49;101220.19;;;-1.06;100.00